createdAt,value
2023-03-08T00:04:36.408Z,73.89
2023-03-08T00:09:39.215Z,73.86
2023-03-08T00:14:51.332Z,73.86
2023-03-08T00:19:53.762Z,73.78
2023-03-08T00:24:55.823Z,73.62
2023-03-08T00:29:58.419Z,73.39
2023-03-08T00:35:04.851Z,73.08
2023-03-08T00:40:07.882Z,72.91
2023-03-08T00:45:11.862Z,72.76
2023-03-08T00:50:16.376Z,72.57
2023-03-08T00:55:38.595Z,72.25
2023-03-08T01:00:40.772Z,71.95
2023-03-08T01:05:45.155Z,71.68
2023-03-08T01:10:50.073Z,71.70
2023-03-08T01:15:52.187Z,71.58
2023-03-08T01:20:59.247Z,71.82
2023-03-08T01:26:07.518Z,71.97
2023-03-08T01:31:16.368Z,71.90
2023-03-08T01:36:20.890Z,72.05
2023-03-08T01:41:26.741Z,71.94
2023-03-08T01:46:36.259Z,72.04
2023-03-08T01:51:56.850Z,71.83
2023-03-08T01:57:06.985Z,71.83
2023-03-08T02:02:09.420Z,71.80
2023-03-08T02:07:12.211Z,71.91
2023-03-08T02:12:15.303Z,71.92
2023-03-08T02:17:17.393Z,71.96
2023-03-08T02:22:20.440Z,71.82
2023-03-08T02:27:28.115Z,71.78
2023-03-08T02:32:30.219Z,71.71
2023-03-08T02:37:33.855Z,71.54
2023-03-08T02:42:37.123Z,71.38
2023-03-08T02:47:39.140Z,71.24
2023-03-08T02:52:42.051Z,70.86
2023-03-08T02:57:44.352Z,70.51
2023-03-08T03:02:46.363Z,70.31
2023-03-08T03:07:48.297Z,70.25
2023-03-08T03:12:53.209Z,70.43
2023-03-08T03:17:58.449Z,70.53
2023-03-08T03:23:00.633Z,70.43
2023-03-08T03:28:11.288Z,70.27
2023-03-08T03:33:13.604Z,70.27
2023-03-08T03:38:15.721Z,70.27
2023-03-08T03:43:19.316Z,70.36
2023-03-08T03:48:21.415Z,70.10
2023-03-08T03:53:24.296Z,70.03
2023-03-08T03:58:27.349Z,69.63
2023-03-08T04:03:29.909Z,69.45
2023-03-08T04:08:33.384Z,69.16
2023-03-08T04:13:38.332Z,68.93
2023-03-08T04:18:40.811Z,68.82
2023-03-08T04:23:43.873Z,68.64
2023-03-08T04:28:46.089Z,68.58
2023-03-08T04:33:48.490Z,68.43
2023-03-08T04:38:51.333Z,68.30
2023-03-08T04:43:56.328Z,68.19
2023-03-08T04:49:06.036Z,68.14
2023-03-08T04:54:13.161Z,68.09
2023-03-08T04:59:19.633Z,67.94
2023-03-08T05:04:21.638Z,67.77
2023-03-08T05:09:23.669Z,67.65
2023-03-08T05:14:26.546Z,67.47
2023-03-08T05:19:29.305Z,67.37
2023-03-08T05:24:32.151Z,67.36
2023-03-08T05:29:38.586Z,67.34
2023-03-08T05:34:40.939Z,67.53
2023-03-08T05:39:47.434Z,67.65
2023-03-08T05:44:55.879Z,67.58
2023-03-08T05:50:02.481Z,67.48
2023-03-08T05:55:07.644Z,67.30
2023-03-08T06:00:10.941Z,67.16
2023-03-08T06:05:21.897Z,67.17
2023-03-08T06:10:24.727Z,67.01
2023-03-08T06:15:27.187Z,66.89
2023-03-08T06:20:31.199Z,66.48
2023-03-08T06:25:33.229Z,66.18
2023-03-08T06:30:36.204Z,66.13
2023-03-08T06:35:39.000Z,65.94
2023-03-08T06:40:41.383Z,65.87
2023-03-08T06:45:44.143Z,65.29
2023-03-08T06:50:46.985Z,65.30
2023-03-08T06:55:50.468Z,65.13
2023-03-08T07:00:54.394Z,64.40
2023-03-08T07:06:00.719Z,63.56
2023-03-08T07:11:03.584Z,63.30
2023-03-08T07:16:08.316Z,62.97
2023-03-08T07:21:11.053Z,62.72
2023-03-08T07:26:12.990Z,64.05
2023-03-08T07:31:15.102Z,66.91
2023-03-08T07:36:17.031Z,66.87
2023-03-08T07:41:19.218Z,67.05
2023-03-08T07:46:22.233Z,67.16
2023-03-08T07:51:25.704Z,67.46
2023-03-08T07:56:27.905Z,67.25
2023-03-08T08:01:30.115Z,66.76
2023-03-08T08:06:32.067Z,66.02
2023-03-08T08:11:38.415Z,65.71
2023-03-08T08:16:40.546Z,65.35
2023-03-08T08:21:42.830Z,64.99
2023-03-08T08:26:45.266Z,63.78
2023-03-08T08:31:47.447Z,63.57
2023-03-08T08:36:50.130Z,64.46
2023-03-08T08:41:52.593Z,65.68
2023-03-08T08:46:54.563Z,66.36
2023-03-08T08:51:57.049Z,66.41
2023-03-08T08:57:00.051Z,65.96
2023-03-08T09:02:05.450Z,65.45
2023-03-08T09:07:07.845Z,64.86
2023-03-08T09:12:10.066Z,64.59
2023-03-08T09:17:12.093Z,64.52
2023-03-08T09:22:14.073Z,64.42
2023-03-08T09:27:16.569Z,64.43
2023-03-08T09:32:18.915Z,64.25
2023-03-08T09:37:21.278Z,64.34
2023-03-08T09:42:32.493Z,63.87
2023-03-08T09:47:57.991Z,63.58
2023-03-08T09:53:11.005Z,63.25
2023-03-08T09:58:41.182Z,63.00
2023-03-08T10:03:43.041Z,62.19
2023-03-08T10:09:20.724Z,62.08
2023-03-08T10:14:30.577Z,62.51
2023-03-08T10:19:42.285Z,61.27
2023-03-08T10:25:23.731Z,61.20
2023-03-08T10:30:32.440Z,60.67
2023-03-08T10:36:12.694Z,59.94
2023-03-08T10:41:16.675Z,60.18
2023-03-08T10:46:31.984Z,59.04
2023-03-08T10:51:34.712Z,60.57
2023-03-08T10:56:40.270Z,60.08
2023-03-08T11:01:51.377Z,60.52
2023-03-08T11:06:53.845Z,62.36
2023-03-08T11:11:57.870Z,61.78
2023-03-08T11:17:14.022Z,60.58
2023-03-08T11:22:28.472Z,58.11
2023-03-08T11:27:41.559Z,58.20
2023-03-08T11:33:22.165Z,59.06
2023-03-08T11:38:29.647Z,58.84
2023-03-08T11:44:09.497Z,57.88
2023-03-08T11:49:26.890Z,57.05
2023-03-08T11:55:06.009Z,55.54
2023-03-08T12:00:23.222Z,53.22
2023-03-08T12:05:30.132Z,51.80
2023-03-08T12:10:50.079Z,51.95
2023-03-08T12:16:22.403Z,51.79
2023-03-08T12:21:34.449Z,50.64
2023-03-08T12:26:44.639Z,50.42
2023-03-08T12:31:49.603Z,48.83
2023-03-08T12:36:51.755Z,48.92
2023-03-08T12:42:25.229Z,49.03
2023-03-08T12:47:28.124Z,49.93
2023-03-08T12:52:35.055Z,51.15
2023-03-08T12:57:46.686Z,51.34
2023-03-08T13:03:00.136Z,51.16
2023-03-08T13:08:21.319Z,51.04
2023-03-08T13:13:48.073Z,50.96
2023-03-08T13:19:17.264Z,51.29
2023-03-08T13:24:42.182Z,50.72
2023-03-08T13:29:47.052Z,50.60
2023-03-08T13:35:03.782Z,50.50
2023-03-08T13:40:18.867Z,50.36
2023-03-08T13:45:21.667Z,49.87
2023-03-08T13:50:33.981Z,49.16
2023-03-08T13:55:42.213Z,49.51
2023-03-08T14:00:44.312Z,49.48
2023-03-08T14:05:46.742Z,49.24
2023-03-08T14:11:03.106Z,49.83
2023-03-08T14:16:07.727Z,49.74
2023-03-08T14:21:15.685Z,49.31
2023-03-08T14:26:36.470Z,49.79
2023-03-08T14:31:39.702Z,50.29
2023-03-08T14:36:51.109Z,49.92
2023-03-08T14:41:54.235Z,50.02
2023-03-08T14:47:07.406Z,50.39
2023-03-08T14:52:20.723Z,51.26
2023-03-08T14:57:26.197Z,51.93
2023-03-08T15:02:36.784Z,53.09
2023-03-08T15:07:39.646Z,53.73
2023-03-08T15:12:41.861Z,54.66
2023-03-08T15:17:43.925Z,57.31
2023-03-08T15:22:49.582Z,58.78
2023-03-08T15:27:55.071Z,58.54
2023-03-08T15:32:59.508Z,57.82
2023-03-08T15:38:02.561Z,57.18
2023-03-08T15:43:08.007Z,57.13
2023-03-08T15:48:15.777Z,57.26
2023-03-08T15:53:29.590Z,58.15
2023-03-08T15:58:36.692Z,59.16
2023-03-08T16:03:38.638Z,60.00
2023-03-08T16:08:42.265Z,61.01
2023-03-08T16:13:44.585Z,61.25
2023-03-08T16:18:47.094Z,61.66
2023-03-08T16:23:48.887Z,62.52
2023-03-08T16:28:51.822Z,62.56
2023-03-08T16:33:54.139Z,62.53
2023-03-08T16:38:56.710Z,63.04
2023-03-08T16:43:59.257Z,63.68
2023-03-08T16:49:01.706Z,63.95
2023-03-08T16:54:04.825Z,64.57
2023-03-08T16:59:07.304Z,66.24
2023-03-08T17:04:11.330Z,67.19
2023-03-08T17:09:13.436Z,67.71
2023-03-08T17:14:16.418Z,67.43
2023-03-08T17:19:18.374Z,67.22
2023-03-08T17:24:21.776Z,67.17
2023-03-08T17:29:24.310Z,66.89
2023-03-08T17:34:26.243Z,66.82
2023-03-08T17:39:28.358Z,67.43
2023-03-08T17:44:30.516Z,68.68
2023-03-08T17:49:34.247Z,68.91
2023-03-08T17:54:37.057Z,68.83
2023-03-08T17:59:39.320Z,67.87
2023-03-08T18:04:47.349Z,68.29
2023-03-08T18:09:49.582Z,68.44
2023-03-08T18:14:54.781Z,68.60
2023-03-08T18:19:56.729Z,68.74
2023-03-08T18:24:59.012Z,69.90
2023-03-08T18:30:00.969Z,70.45
2023-03-08T18:35:09.246Z,70.75
2023-03-08T18:40:14.999Z,70.68
2023-03-08T18:45:18.349Z,70.75
2023-03-08T18:50:24.234Z,70.84
2023-03-08T18:55:29.369Z,71.06
2023-03-08T19:00:31.946Z,71.10
2023-03-08T19:05:35.968Z,71.19
2023-03-08T19:10:38.073Z,71.34
2023-03-08T19:15:43.797Z,70.64
2023-03-08T19:20:45.931Z,69.96
2023-03-08T19:26:17.570Z,69.20
2023-03-08T19:31:20.154Z,68.85
2023-03-08T19:36:22.674Z,68.92
2023-03-08T19:41:26.312Z,68.98
2023-03-08T19:46:28.737Z,68.91
2023-03-08T19:51:31.195Z,68.84
2023-03-08T19:56:34.202Z,69.24
2023-03-08T20:01:36.921Z,69.93
2023-03-08T20:06:45.078Z,70.62
2023-03-08T20:11:53.383Z,70.97
2023-03-08T20:16:56.269Z,70.94
2023-03-08T20:21:59.133Z,71.14
2023-03-08T20:27:01.325Z,71.81
2023-03-08T20:32:13.480Z,72.57
2023-03-08T20:37:15.534Z,72.64
2023-03-08T20:42:22.182Z,72.80
2023-03-08T20:47:24.244Z,73.07
2023-03-08T20:52:27.098Z,73.22
2023-03-08T20:57:30.426Z,73.29
2023-03-08T21:02:32.865Z,73.24
2023-03-08T21:07:35.127Z,73.22
2023-03-08T21:12:39.065Z,73.32
2023-03-08T21:17:41.818Z,73.37
2023-03-08T21:22:44.323Z,73.38
2023-03-08T21:27:46.249Z,73.31
2023-03-08T21:32:48.509Z,73.37
2023-03-08T21:37:50.936Z,73.61
2023-03-08T21:42:52.996Z,73.89
2023-03-08T21:47:57.546Z,74.22
2023-03-08T21:52:59.805Z,74.58
2023-03-08T21:58:02.275Z,74.93
2023-03-08T22:03:04.773Z,75.41
2023-03-08T22:08:08.381Z,76.11
2023-03-08T22:13:12.908Z,76.62
2023-03-08T22:18:15.193Z,76.32
2023-03-08T22:23:17.332Z,76.23
2023-03-08T22:28:21.287Z,76.34
2023-03-08T22:33:25.633Z,76.54
2023-03-08T22:38:33.699Z,76.91
2023-03-08T22:43:36.568Z,77.11
2023-03-08T22:48:39.260Z,77.56
2023-03-08T22:53:43.123Z,77.89
2023-03-08T22:58:46.578Z,78.08
2023-03-08T23:03:49.877Z,77.76
2023-03-08T23:08:55.676Z,77.43
2023-03-08T23:14:02.097Z,77.27
2023-03-08T23:19:04.812Z,77.28
2023-03-08T23:24:08.175Z,77.29
2023-03-08T23:29:10.399Z,77.72
2023-03-08T23:34:13.424Z,77.93
2023-03-08T23:39:15.469Z,78.42
2023-03-08T23:44:18.476Z,78.71
2023-03-08T23:49:21.150Z,78.86
2023-03-08T23:54:23.601Z,79.61
2023-03-08T23:59:26.268Z,79.78
